Time;durP1;ratioP1;P1;durP2;ratioP2;P2;SDS_P1;SDS_P2;PMS_P1;PMS_P2;Temp;Humidity;BMP_temperature;BMP_pressure;BME280_temperature;BME280_humidity;BME280_pressure;Samples;Min_cycle;Max_cycle;Signal;HPM_P1;HPM_P2
2023/06/05 00:02:28;;;;;;;2.30;1.30;;;;;;;;;;8314279;28;20044;-63
2023/06/05 00:06:29;;;;;;;1.20;1.10;;;;;;;;;;8315817;28;20028;-63
2023/06/05 00:10:29;;;;;;;1.20;1.10;;;;;;;;;;8317610;28;20137;-63
2023/06/05 00:14:30;;;;;;;1.20;1.10;;;;;;;;;;8317182;28;20037;-63
2023/06/05 00:18:30;;;;;;;1.20;1.10;;;;;;;;;;8312267;28;20061;-63
2023/06/05 00:22:33;;;;;;;1.80;1.20;;;;;;;;;;8314780;28;20402;-63
2023/06/05 00:26:33;;;;;;;1.13;1.07;;;;;;;;;;8315474;28;20278;-63
2023/06/05 00:30:35;;;;;;;1.48;1.20;;;;;;;;;;8314981;28;20845;-63
2023/06/05 00:34:36;;;;;;;2.85;1.08;;;;;;;;;;8314038;28;20658;-63
2023/06/05 00:38:36;;;;;;;1.20;1.02;;;;;;;;;;8314458;28;20568;-63
2023/06/05 00:42:36;;;;;;;1.73;1.10;;;;;;;;;;8312963;28;20115;-63
2023/06/05 00:46:37;;;;;;;1.20;1.10;;;;;;;;;;8314175;28;20033;-63
2023/06/05 00:50:37;;;;;;;1.15;1.05;;;;;;;;;;8316360;28;20017;-63
2023/06/05 00:54:38;;;;;;;2.75;1.10;;;;;;;;;;8314527;28;20817;-62
2023/06/05 00:58:39;;;;;;;1.33;1.20;;;;;;;;;;8313617;28;20607;-63
2023/06/05 01:02:39;;;;;;;1.92;1.30;;;;;;;;;;8314222;28;20116;-63
2023/06/05 01:06:43;;;;;;;1.17;1.08;;;;;;;;;;8313504;28;20102;-63
2023/06/05 01:10:44;;;;;;;1.20;1.10;;;;;;;;;;8318546;28;20036;-63
2023/06/05 01:14:47;;;;;;;3.22;1.27;;;;;;;;;;8317948;28;20044;-63
2023/06/05 01:18:48;;;;;;;2.15;1.30;;;;;;;;;;8321387;28;20032;-63
2023/06/05 01:22:53;;;;;;;1.48;1.20;;;;;;;;;;8322452;28;20032;-63
2023/06/05 01:27:15;;;;;;;2.00;1.15;;;;;;;;;;8323064;28;20027;-63
2023/06/05 01:31:19;;;;;;;1.45;1.20;;;;;;;;;;8319684;28;20297;-63
2023/06/05 01:35:20;;;;;;;;;;;;;;;;;;8318838;28;20029;-63
2023/06/05 01:39:21;;;;;;;2.93;1.20;;;;;;;;;;8321335;28;20003;-63
2023/06/05 01:43:21;;;;;;;1.38;0.98;;;;;;;;;;8319292;28;20032;-63
2023/06/05 01:47:21;;;;;;;2.00;1.30;;;;;;;;;;8320867;28;20033;-63
2023/06/05 01:51:22;;;;;;;1.33;1.10;;;;;;;;;;8318440;28;20021;-63
2023/06/05 01:55:26;;;;;;;3.25;1.10;;;;;;;;;;8320935;28;20819;-63
2023/06/05 01:59:27;;;;;;;1.67;1.02;;;;;;;;;;8318704;28;20024;-63
2023/06/05 02:03:27;;;;;;;1.60;1.42;;;;;;;;;;8317932;28;20100;-63
2023/06/05 02:07:28;;;;;;;2.83;1.30;;;;;;;;;;8322866;28;20529;-63
2023/06/05 02:11:28;;;;;;;1.40;1.00;;;;;;;;;;8316835;28;20112;-63
2023/06/05 02:15:31;;;;;;;1.30;1.20;;;;;;;;;;8318051;28;20025;-63
2023/06/05 02:19:32;;;;;;;1.70;1.02;;;;;;;;;;8320984;28;20021;-62
2023/06/05 02:23:32;;;;;;;1.17;1.00;;;;;;;;;;8319556;28;20025;-63
2023/06/05 02:27:32;;;;;;;1.73;1.25;;;;;;;;;;8318562;28;20436;-62
2023/06/05 02:31:33;;;;;;;5.25;1.10;;;;;;;;;;8317513;28;20115;-63
2023/06/05 02:35:33;;;;;;;1.90;1.13;;;;;;;;;;8293500;28;20024;-63
2023/06/05 02:39:34;;;;;;;1.10;1.00;;;;;;;;;;8323115;28;20025;-62
2023/06/05 02:43:34;;;;;;;1.45;1.00;;;;;;;;;;8318536;28;20027;-63
2023/06/05 02:47:34;;;;;;;2.13;1.00;;;;;;;;;;8313686;28;20491;-62
2023/06/05 02:51:34;;;;;;;1.15;1.08;;;;;;;;;;8320350;28;20021;-63
2023/06/05 02:55:35;;;;;;;4.40;1.20;;;;;;;;;;8320732;28;20095;-63
2023/06/05 02:59:39;;;;;;;1.80;1.30;;;;;;;;;;8315536;28;20107;-63
2023/06/05 03:03:39;;;;;;;3.28;1.17;;;;;;;;;;8317423;28;20045;-62
2023/06/05 03:07:40;;;;;;;2.92;1.20;;;;;;;;;;8318105;28;20021;-63
2023/06/05 03:11:40;;;;;;;1.35;1.02;;;;;;;;;;8317424;28;20060;-63
2023/06/05 03:15:42;;;;;;;2.20;1.07;;;;;;;;;;8314410;28;20095;-63
2023/06/05 03:19:42;;;;;;;1.23;1.13;;;;;;;;;;8309766;28;20318;-63
2023/06/05 03:23:42;;;;;;;1.70;1.02;;;;;;;;;;8320936;28;20021;-63
2023/06/05 03:27:43;;;;;;;1.20;1.10;;;;;;;;;;8317390;28;20024;-63
2023/06/05 03:31:44;;;;;;;3.42;1.10;;;;;;;;;;8316507;28;20037;-62
2023/06/05 03:35:47;;;;;;;1.88;1.38;;;;;;;;;;8317306;28;20085;-62
2023/06/05 03:39:47;;;;;;;1.48;1.30;;;;;;;;;;8311516;28;20412;-62
2023/06/05 03:43:49;;;;;;;1.30;1.10;;;;;;;;;;8317375;28;20071;-62
2023/06/05 03:47:49;;;;;;;2.35;1.40;;;;;;;;;;8314986;28;20287;-62
2023/06/05 03:51:49;;;;;;;1.80;1.40;;;;;;;;;;8315223;28;20040;-63
2023/06/05 03:55:52;;;;;;;2.80;1.10;;;;;;;;;;8316626;28;20028;-62
2023/06/05 03:59:52;;;;;;;1.10;1.00;;;;;;;;;;8314561;28;20163;-62
2023/06/05 04:03:52;;;;;;;4.50;1.27;;;;;;;;;;8315689;28;20604;-63
2023/06/05 04:07:53;;;;;;;1.60;1.50;;;;;;;;;;8315143;28;20366;-62
2023/06/05 04:11:54;;;;;;;4.45;1.10;;;;;;;;;;8317533;28;20033;-63
2023/06/05 04:15:55;;;;;;;1.63;1.00;;;;;;;;;;8313364;28;20055;-63
2023/06/05 04:19:55;;;;;;;2.08;1.23;;;;;;;;;;8313819;28;20870;-64
2023/06/05 04:23:55;;;;;;;5.13;1.02;;;;;;;;;;8299630;28;20057;-62
2023/06/05 04:27:56;;;;;;;4.05;1.30;;;;;;;;;;8316305;28;20092;-63
2023/06/05 04:31:56;;;;;;;1.77;1.27;;;;;;;;;;8315612;28;20135;-63
2023/06/05 04:35:56;;;;;;;1.73;1.10;;;;;;;;;;8297338;28;20033;-63
2023/06/05 04:39:58;;;;;;;1.67;1.20;;;;;;;;;;8316882;28;20507;-63
2023/06/05 04:43:59;;;;;;;2.53;1.00;;;;;;;;;;8315876;28;20553;-63
2023/06/05 04:48:00;;;;;;;1.70;1.15;;;;;;;;;;8321070;28;20037;-63
2023/06/05 04:52:00;;;;;;;1.50;1.17;;;;;;;;;;8323047;28;20087;-63
2023/06/05 04:56:00;;;;;;;4.63;1.13;;;;;;;;;;8323351;28;20025;-63
2023/06/05 05:00:04;;;;;;;1.20;1.10;;;;;;;;;;8320793;28;20028;-63
2023/06/05 05:04:04;;;;;;;;;;;;;;;;;;8320901;28;20080;-63
2023/06/05 05:08:05;;;;;;;2.35;1.15;;;;;;;;;;8319443;28;20351;-63
2023/06/05 05:12:05;;;;;;;1.50;1.02;;;;;;;;;;8320746;28;20520;-62
2023/06/05 05:16:05;;;;;;;2.13;1.20;;;;;;;;;;8295859;28;20037;-62
2023/06/05 05:20:06;;;;;;;2.95;1.20;;;;;;;;;;8321360;28;20021;-62
2023/06/05 05:24:07;;;;;;;1.48;1.10;;;;;;;;;;8301068;28;20657;-63
2023/06/05 05:28:08;;;;;;;2.28;1.40;;;;;;;;;;8320905;28;20230;-63
2023/06/05 05:32:09;;;;;;;2.55;1.35;;;;;;;;;;8321232;28;20040;-63
2023/06/05 05:36:09;;;;;;;2.30;1.30;;;;;;;;;;8303842;28;20025;-63
2023/06/05 05:40:11;;;;;;;3.63;1.40;;;;;;;;;;8321622;28;20024;-63
2023/06/05 05:44:11;;;;;;;1.95;1.20;;;;;;;;;;8320044;28;20021;-63
2023/06/05 05:48:11;;;;;;;2.10;1.25;;;;;;;;;;8318723;28;20655;-63
2023/06/05 05:52:12;;;;;;;3.70;1.30;;;;;;;;;;8320445;28;20028;-63
2023/06/05 05:56:12;;;;;;;2.17;1.00;;;;;;;;;;8315584;28;21048;-63
2023/06/05 06:00:12;;;;;;;1.98;1.20;;;;;;;;;;8317281;28;20059;-63
2023/06/05 06:04:13;;;;;;;1.95;1.23;;;;;;;;;;8294667;28;20327;-64
2023/06/05 06:08:13;;;;;;;2.00;1.30;;;;;;;;;;8320060;28;20032;-63
2023/06/05 06:12:13;;;;;;;2.58;1.30;;;;;;;;;;8315565;28;20017;-63
2023/06/05 06:16:14;;;;;;;2.45;1.40;;;;;;;;;;8315340;28;20029;-63
2023/06/05 06:20:15;;;;;;;1.58;1.20;;;;;;;;;;8318759;28;20025;-63
2023/06/05 06:24:15;;;;;;;1.73;1.20;;;;;;;;;;8318894;28;20017;-63
2023/06/05 06:28:16;;;;;;;5.43;1.20;;;;;;;;;;8319079;28;20032;-63
2023/06/05 06:32:17;;;;;;;1.85;1.40;;;;;;;;;;8318931;28;20052;-64
2023/06/05 06:36:17;;;;;;;1.92;1.13;;;;;;;;;;8321192;28;20069;-64
2023/06/05 06:40:17;;;;;;;1.52;1.38;;;;;;;;;;8320874;28;20143;-64
2023/06/05 06:44:18;;;;;;;5.67;1.30;;;;;;;;;;8316163;28;20056;-64
2023/06/05 06:48:18;;;;;;;1.50;1.20;;;;;;;;;;8316592;28;20041;-64
2023/06/05 06:52:19;;;;;;;2.40;1.40;;;;;;;;;;8321240;28;20187;-64
2023/06/05 06:56:20;;;;;;;1.83;1.27;;;;;;;;;;8318017;28;20022;-64
2023/06/05 07:00:20;;;;;;;5.75;1.30;;;;;;;;;;8317399;28;20039;-64
2023/06/05 07:04:21;;;;;;;2.17;1.40;;;;;;;;;;8314669;28;20052;-64
2023/06/05 07:08:21;;;;;;;4.40;1.38;;;;;;;;;;8318307;28;20033;-64
2023/06/05 07:12:22;;;;;;;1.10;1.10;;;;;;;;;;8316366;28;20079;-64
2023/06/05 07:16:22;;;;;;;3.50;1.45;;;;;;;;;;8315498;28;20122;-64
2023/06/05 07:20:23;;;;;;;2.08;1.20;;;;;;;;;;8317301;28;20108;-64
2023/06/05 07:24:27;;;;;;;1.80;1.25;;;;;;;;;;8315405;28;20722;-64
2023/06/05 07:28:27;;;;;;;3.88;1.20;;;;;;;;;;8315526;28;20037;-64
2023/06/05 07:32:28;;;;;;;3.17;1.60;;;;;;;;;;8314664;28;20171;-64
2023/06/05 07:36:28;;;;;;;3.43;1.40;;;;;;;;;;8313791;28;20106;-65
2023/06/05 07:40:29;;;;;;;4.32;1.35;;;;;;;;;;8317191;28;20029;-64
2023/06/05 07:44:29;;;;;;;1.83;1.30;;;;;;;;;;8312065;28;20100;-64
2023/06/05 07:48:30;;;;;;;1.40;1.10;;;;;;;;;;8315102;28;20037;-64
2023/06/05 07:52:30;;;;;;;4.90;1.60;;;;;;;;;;8297478;28;20270;-64
2023/06/05 07:56:31;;;;;;;4.00;1.35;;;;;;;;;;8312389;28;20031;-64
2023/06/05 08:00:31;;;;;;;3.92;1.35;;;;;;;;;;8305860;28;20496;-64
2023/06/05 08:04:32;;;;;;;1.45;1.15;;;;;;;;;;8308286;28;20138;-64
2023/06/05 08:08:32;;;;;;;3.45;1.60;;;;;;;;;;8307456;28;20024;-64
2023/06/05 08:12:32;;;;;;;3.97;1.30;;;;;;;;;;8304733;28;20033;-64
2023/06/05 08:16:33;;;;;;;3.20;1.50;;;;;;;;;;8304829;28;20045;-64
2023/06/05 08:20:33;;;;;;;2.60;1.55;;;;;;;;;;8306252;28;20120;-64
2023/06/05 08:24:33;;;;;;;3.72;1.30;;;;;;;;;;8308114;28;20083;-64
2023/06/05 08:28:33;;;;;;;6.67;1.40;;;;;;;;;;8305731;28;20656;-64
2023/06/05 08:32:33;;;;;;;4.28;1.38;;;;;;;;;;8304420;28;20127;-64
2023/06/05 08:36:34;;;;;;;3.20;1.55;;;;;;;;;;8310452;28;20164;-64
2023/06/05 08:40:36;;;;;;;3.08;1.25;;;;;;;;;;8306492;28;21263;-64
2023/06/05 08:44:36;;;;;;;4.95;1.55;;;;;;;;;;8286026;28;20493;-64
2023/06/05 08:48:42;;;;;;;2.60;1.40;;;;;;;;;;8304252;28;20095;-64
2023/06/05 08:52:43;;;;;;;1.33;1.20;;;;;;;;;;8304204;28;20245;-64
2023/06/05 08:56:43;;;;;;;1.45;1.30;;;;;;;;;;8303998;28;20021;-64
2023/06/05 09:00:44;;;;;;;1.70;1.58;;;;;;;;;;8302448;28;20430;-64
2023/06/05 09:04:44;;;;;;;1.50;1.37;;;;;;;;;;8299874;28;20397;-64
2023/06/05 09:08:45;;;;;;;2.30;1.40;;;;;;;;;;8303983;28;20432;-64
2023/06/05 09:12:55;;;;;;;3.57;1.30;;;;;;;;;;8303030;28;20021;-63
2023/06/05 09:16:55;;;;;;;2.50;1.40;;;;;;;;;;8307132;28;20029;-64
2023/06/05 09:20:56;;;;;;;2.30;1.50;;;;;;;;;;8314869;28;20079;-64
2023/06/05 09:24:57;;;;;;;1.83;1.30;;;;;;;;;;8305368;28;20036;-63
2023/06/05 09:28:58;;;;;;;2.00;1.43;;;;;;;;;;8306970;28;20279;-64
2023/06/05 09:33:08;;;;;;;2.33;1.37;;;;;;;;;;8307959;28;20562;-64
2023/06/05 09:37:09;;;;;;;1.90;1.38;;;;;;;;;;8309362;28;20044;-64
2023/06/05 09:41:14;;;;;;;5.88;1.30;;;;;;;;;;8312019;28;20168;-63
2023/06/05 09:45:15;;;;;;;3.53;1.40;;;;;;;;;;8309658;28;20692;-64
2023/06/05 09:49:15;;;;;;;1.50;1.40;;;;;;;;;;8310402;28;20009;-64
2023/06/05 09:53:16;;;;;;;2.67;1.60;;;;;;;;;;8309833;28;20614;-63
2023/06/05 09:57:17;;;;;;;1.75;1.65;;;;;;;;;;8311131;28;20017;-64
2023/06/05 10:01:24;;;;;;;1.73;1.50;;;;;;;;;;8311131;28;20147;-64
2023/06/05 10:05:25;;;;;;;4.50;1.60;;;;;;;;;;8315459;28;20060;-63
2023/06/05 10:09:26;;;;;;;1.60;1.50;;;;;;;;;;8334497;23;20461;-73
2023/06/05 10:13:26;;;;;;;2.63;1.73;;;;;;;;;;8330758;28;20105;-73
2023/06/05 10:17:27;;;;;;;4.67;1.67;;;;;;;;;;8329452;28;20821;-73
2023/06/05 10:21:28;;;;;;;3.40;1.90;;;;;;;;;;8331622;28;20967;-73
2023/06/05 10:25:29;;;;;;;2.17;1.63;;;;;;;;;;8330921;28;20024;-73
2023/06/05 10:29:35;;;;;;;4.13;1.95;;;;;;;;;;8333255;28;20035;-72
2023/06/05 10:33:42;;;;;;;3.70;2.00;;;;;;;;;;8332742;28;20453;-73
2023/06/05 10:37:57;;;;;;;3.00;2.00;;;;;;;;;;8333710;28;20063;-72
2023/06/05 10:41:58;;;;;;;2.35;1.80;;;;;;;;;;8314536;28;20012;-72
2023/06/05 10:46:21;;;;;;;3.92;2.00;;;;;;;;;;8328033;28;20029;-72
2023/06/05 10:50:24;;;;;;;2.97;2.08;;;;;;;;;;8330502;28;20031;-72
2023/06/05 10:54:25;;;;;;;3.10;2.20;;;;;;;;;;8314223;28;20089;-73
2023/06/05 10:58:25;;;;;;;7.55;2.03;;;;;;;;;;8314720;28;20096;-72
2023/06/05 11:02:25;;;;;;;3.50;2.00;;;;;;;;;;8328925;28;20036;-73
2023/06/05 11:06:26;;;;;;;4.15;1.90;;;;;;;;;;8331573;28;20071;-72
2023/06/05 11:10:27;;;;;;;4.50;1.97;;;;;;;;;;8330220;28;20355;-72
2023/06/05 11:14:46;;;;;;;4.10;2.00;;;;;;;;;;8330093;28;20476;-72
2023/06/05 11:18:46;;;;;;;7.43;2.00;;;;;;;;;;8322790;28;20040;-72
2023/06/05 11:22:52;;;;;;;4.47;1.90;;;;;;;;;;8330758;28;20020;-72
2023/06/05 11:26:53;;;;;;;2.72;1.90;;;;;;;;;;8330213;28;20447;-72
2023/06/05 11:30:53;;;;;;;2.17;1.60;;;;;;;;;;8329518;28;20066;-72
2023/06/05 11:34:56;;;;;;;3.07;1.70;;;;;;;;;;8328792;28;20021;-72
2023/06/05 11:38:57;;;;;;;1.88;1.70;;;;;;;;;;8328315;28;20028;-72
2023/06/05 11:43:02;;;;;;;2.23;1.97;;;;;;;;;;8313367;28;20488;-72
2023/06/05 11:47:02;;;;;;;5.32;1.77;;;;;;;;;;8328760;28;20048;-72
2023/06/05 11:51:05;;;;;;;2.17;1.63;;;;;;;;;;8331810;28;20148;-72
2023/06/05 11:55:14;;;;;;;2.85;1.85;;;;;;;;;;8329474;28;20328;-72
2023/06/05 11:59:15;;;;;;;2.88;1.60;;;;;;;;;;8330537;28;20027;-76
2023/06/05 12:03:18;;;;;;;3.63;1.73;;;;;;;;;;8329823;28;20056;-72
2023/06/05 12:07:28;;;;;;;1.92;1.75;;;;;;;;;;8311033;28;20025;-72
2023/06/05 12:11:28;;;;;;;4.20;1.75;;;;;;;;;;8327858;28;20482;-72
2023/06/05 12:15:31;;;;;;;2.70;1.75;;;;;;;;;;8328987;28;20086;-72
2023/06/05 12:19:31;;;;;;;3.10;1.75;;;;;;;;;;8328982;28;20023;-72
2023/06/05 12:23:32;;;;;;;5.15;1.95;;;;;;;;;;8314834;28;20060;-73
2023/06/05 12:27:33;;;;;;;4.73;1.90;;;;;;;;;;8327962;28;20025;-73
2023/06/05 12:31:34;;;;;;;2.73;1.80;;;;;;;;;;8327397;28;20041;-74
2023/06/05 12:35:35;;;;;;;4.87;2.00;;;;;;;;;;8324400;28;20771;-73
2023/06/05 12:39:36;;;;;;;6.70;2.10;;;;;;;;;;8328307;28;20417;-73
2023/06/05 12:43:36;;;;;;;4.85;1.60;;;;;;;;;;8324812;28;20136;-73
2023/06/05 12:47:37;;;;;;;5.07;1.90;;;;;;;;;;8333241;28;20394;-73
2023/06/05 12:51:37;;;;;;;2.23;1.53;;;;;;;;;;8331312;28;20095;-73
2023/06/05 12:55:37;;;;;;;14.18;2.35;;;;;;;;;;8334284;28;20028;-72
2023/06/05 12:59:38;;;;;;;6.63;1.77;;;;;;;;;;8331745;28;20020;-73
2023/06/05 13:03:38;;;;;;;2.30;1.70;;;;;;;;;;8330288;28;20859;-72
2023/06/05 13:07:39;;;;;;;3.35;1.90;;;;;;;;;;8333047;28;20790;-73
2023/06/05 13:11:40;;;;;;;6.45;1.90;;;;;;;;;;8336807;28;20101;-72
2023/06/05 13:15:41;;;;;;;7.22;1.70;;;;;;;;;;8336525;28;20048;-72
2023/06/05 13:19:42;;;;;;;12.93;2.50;;;;;;;;;;8338534;28;20068;-73
2023/06/05 13:23:42;;;;;;;8.75;4.45;;;;;;;;;;8338659;28;20988;-72
2023/06/05 13:27:42;;;;;;;4.17;1.80;;;;;;;;;;8337424;28;20115;-72
2023/06/05 13:31:42;;;;;;;5.97;1.90;;;;;;;;;;8323028;28;20429;-72
2023/06/05 13:35:42;;;;;;;4.28;1.92;;;;;;;;;;8338458;28;20040;-72
2023/06/05 13:39:43;;;;;;;5.38;1.88;;;;;;;;;;8336650;28;20047;-72
2023/06/05 13:43:44;;;;;;;5.38;1.95;;;;;;;;;;8337023;28;20028;-72
2023/06/05 13:47:44;;;;;;;9.30;2.00;;;;;;;;;;8335944;28;20583;-72
2023/06/05 13:51:45;;;;;;;3.17;1.63;;;;;;;;;;8335154;28;20025;-73
2023/06/05 13:55:45;;;;;;;1.60;1.48;;;;;;;;;;8335282;28;20021;-72
2023/06/05 13:59:45;;;;;;;3.88;1.88;;;;;;;;;;8338287;28;20028;-72
2023/06/05 14:03:47;;;;;;;2.33;1.80;;;;;;;;;;8320299;28;20041;-73
2023/06/05 14:07:49;;;;;;;1.92;1.75;;;;;;;;;;8333279;28;20025;-72
2023/06/05 14:11:49;;;;;;;5.70;1.83;;;;;;;;;;8335015;28;20561;-72
2023/06/05 14:15:49;;;;;;;3.13;1.80;;;;;;;;;;8332848;28;20075;-73
2023/06/05 14:19:50;;;;;;;1.80;1.70;;;;;;;;;;8330062;28;20081;-72
2023/06/05 14:23:50;;;;;;;3.83;1.73;;;;;;;;;;8318967;28;21227;-72
2023/06/05 14:27:53;;;;;;;5.23;1.83;;;;;;;;;;8332296;28;20024;-72
2023/06/05 14:31:53;;;;;;;1.75;1.42;;;;;;;;;;8333587;28;20156;-72
2023/06/05 14:35:53;;;;;;;7.85;1.70;;;;;;;;;;8334339;28;20044;-73
2023/06/05 14:39:53;;;;;;;3.47;1.80;;;;;;;;;;8334583;28;20031;-73
2023/06/05 14:43:53;;;;;;;2.23;1.77;;;;;;;;;;8318680;28;20479;-73
2023/06/05 14:47:54;;;;;;;2.53;1.88;;;;;;;;;;8335579;28;20036;-72
2023/06/05 14:51:54;;;;;;;2.10;1.90;;;;;;;;;;8320032;28;20017;-72
2023/06/05 14:55:54;;;;;;;7.80;2.07;;;;;;;;;;8317477;28;20385;-73
2023/06/05 14:59:55;;;;;;;6.17;2.13;;;;;;;;;;8318959;28;20117;-72
2023/06/05 15:03:55;;;;;;;5.70;1.80;;;;;;;;;;8331741;28;20080;-73
2023/06/05 15:07:55;;;;;;;6.78;1.77;;;;;;;;;;8334342;28;20113;-72
2023/06/05 15:11:55;;;;;;;2.97;1.80;;;;;;;;;;8330071;28;20059;-73
2023/06/05 15:15:58;;;;;;;2.83;1.70;;;;;;;;;;8313595;28;21125;-73
2023/06/05 15:19:59;;;;;;;3.60;1.70;;;;;;;;;;8332216;28;20037;-73
2023/06/05 15:23:59;;;;;;;3.30;1.58;;;;;;;;;;8328772;28;20509;-73
2023/06/05 15:27:59;;;;;;;2.25;1.70;;;;;;;;;;8328791;28;20024;-72
2023/06/05 15:32:00;;;;;;;2.10;1.90;;;;;;;;;;8332691;28;20047;-72
2023/06/05 15:36:00;;;;;;;3.55;1.63;;;;;;;;;;8334437;28;20021;-73
2023/06/05 15:40:00;;;;;;;4.00;1.80;;;;;;;;;;8317148;28;20055;-74
2023/06/05 15:44:00;;;;;;;5.03;2.10;;;;;;;;;;8331040;28;20036;-72
2023/06/05 15:48:01;;;;;;;3.80;1.70;;;;;;;;;;8330501;28;20291;-72
2023/06/05 15:52:01;;;;;;;4.00;1.90;;;;;;;;;;8334819;28;20413;-72
2023/06/05 15:56:02;;;;;;;2.55;1.63;;;;;;;;;;8333724;28;20020;-72
2023/06/05 16:00:02;;;;;;;11.73;2.13;;;;;;;;;;8336320;28;20024;-72
2023/06/05 16:04:02;;;;;;;3.60;2.00;;;;;;;;;;8334637;28;20060;-73
2023/06/05 16:08:02;;;;;;;3.72;1.80;;;;;;;;;;8334380;28;20033;-73
2023/06/05 16:12:03;;;;;;;7.30;2.10;;;;;;;;;;8334092;28;20171;-72
2023/06/05 16:16:03;;;;;;;6.95;1.80;;;;;;;;;;8333769;28;20767;-72
2023/06/05 16:20:04;;;;;;;5.33;1.90;;;;;;;;;;8335077;28;20862;-72
2023/06/05 16:24:04;;;;;;;2.92;1.77;;;;;;;;;;8332173;28;20025;-72
2023/06/05 16:28:05;;;;;;;3.08;1.95;;;;;;;;;;8331754;28;20033;-72
2023/06/05 16:32:05;;;;;;;11.18;2.08;;;;;;;;;;8333914;28;20029;-72
2023/06/05 16:36:05;;;;;;;3.15;1.60;;;;;;;;;;8332845;28;20040;-72
2023/06/05 16:40:06;;;;;;;7.53;2.40;;;;;;;;;;8334600;28;20111;-73
2023/06/05 16:44:09;;;;;;;5.68;2.60;;;;;;;;;;8336700;28;20040;-72
2023/06/05 16:48:10;;;;;;;2.03;1.77;;;;;;;;;;8341911;28;20033;-72
2023/06/05 16:52:10;;;;;;;2.65;1.80;;;;;;;;;;8324974;28;20036;-73
2023/06/05 16:56:10;;;;;;;2.20;1.60;;;;;;;;;;8338876;28;20027;-73
2023/06/05 17:00:11;;;;;;;4.30;1.70;;;;;;;;;;8339859;28;20031;-73
2023/06/05 17:04:11;;;;;;;2.08;1.60;;;;;;;;;;8328893;28;20060;-73
2023/06/05 17:08:13;;;;;;;2.47;1.70;;;;;;;;;;8338639;28;20075;-73
2023/06/05 17:12:13;;;;;;;2.80;1.80;;;;;;;;;;8339078;28;20483;-74
2023/06/05 17:16:13;;;;;;;4.05;1.85;;;;;;;;;;8337599;28;20061;-74
2023/06/05 17:20:13;;;;;;;21.50;2.10;;;;;;;;;;8339293;28;20021;-74
2023/06/05 17:24:14;;;;;;;6.32;2.00;;;;;;;;;;8322283;28;20023;-74
2023/06/05 17:28:14;;;;;;;7.95;1.90;;;;;;;;;;8324513;28;20142;-74
2023/06/05 17:32:14;;;;;;;8.95;2.08;;;;;;;;;;8336663;28;20488;-74
2023/06/05 17:36:14;;;;;;;8.82;2.10;;;;;;;;;;8338803;28;20036;-75
2023/06/05 17:40:14;;;;;;;3.97;1.70;;;;;;;;;;8340208;28;20021;-74
2023/06/05 17:44:15;;;;;;;5.05;1.77;;;;;;;;;;8335832;28;20044;-75
2023/06/05 17:48:16;;;;;;;2.13;1.80;;;;;;;;;;8325670;28;20052;-74
2023/06/05 17:52:16;;;;;;;2.80;2.00;;;;;;;;;;8336541;28;20028;-74
2023/06/05 17:56:16;;;;;;;2.55;1.70;;;;;;;;;;8338335;28;20029;-74
2023/06/05 18:00:20;;;;;;;3.63;1.70;;;;;;;;;;8336423;28;20104;-73
2023/06/05 18:04:21;;;;;;;3.83;1.75;;;;;;;;;;8334228;28;20432;-74
2023/06/05 18:08:21;;;;;;;3.75;1.77;;;;;;;;;;8334464;28;20056;-74
2023/06/05 18:12:21;;;;;;;1.85;1.60;;;;;;;;;;8338956;28;20032;-74
2023/06/05 18:16:23;;;;;;;1.70;1.45;;;;;;;;;;8318349;28;20049;-75
2023/06/05 18:20:23;;;;;;;3.53;1.60;;;;;;;;;;8331928;28;20094;-74
2023/06/05 18:24:23;;;;;;;2.97;1.77;;;;;;;;;;8331253;28;20024;-74
2023/06/05 18:28:24;;;;;;;5.13;1.60;;;;;;;;;;8333044;28;20131;-74
2023/06/05 18:32:24;;;;;;;2.03;1.83;;;;;;;;;;8331889;28;20036;-74
2023/06/05 18:36:25;;;;;;;2.42;1.70;;;;;;;;;;8332033;28;20479;-74
2023/06/05 18:40:25;;;;;;;1.83;1.70;;;;;;;;;;8334127;28;20021;-75
2023/06/05 18:44:25;;;;;;;5.88;1.70;;;;;;;;;;8315854;28;20033;-74
2023/06/05 18:48:26;;;;;;;3.08;1.75;;;;;;;;;;8334625;28;20036;-75
2023/06/05 18:52:26;;;;;;;4.90;1.50;;;;;;;;;;8333889;28;20048;-75
2023/06/05 18:56:27;;;;;;;3.65;1.70;;;;;;;;;;8332149;28;20538;-74
2023/06/05 19:00:28;;;;;;;4.82;1.65;;;;;;;;;;8330615;28;20033;-75
2023/06/05 19:04:28;;;;;;;3.80;1.88;;;;;;;;;;8322303;28;20828;-77
2023/06/05 19:08:28;;;;;;;7.50;1.60;;;;;;;;;;8315360;28;20020;-74
2023/06/05 19:12:29;;;;;;;4.85;1.65;;;;;;;;;;8330722;28;20105;-75
2023/06/05 19:16:31;;;;;;;2.67;1.75;;;;;;;;;;8331506;28;20033;-74
2023/06/05 19:20:31;;;;;;;3.13;1.70;;;;;;;;;;8334923;28;20782;-75
2023/06/05 19:24:31;;;;;;;2.92;1.98;;;;;;;;;;8315019;28;20151;-76
2023/06/05 19:28:32;;;;;;;6.17;1.80;;;;;;;;;;8330435;28;20024;-75
2023/06/05 19:32:32;;;;;;;1.83;1.63;;;;;;;;;;8332621;28;20643;-75
2023/06/05 19:36:32;;;;;;;5.43;1.65;;;;;;;;;;8331045;28;20119;-76
2023/06/05 19:40:33;;;;;;;2.85;1.65;;;;;;;;;;8332293;28;20025;-75
2023/06/05 19:44:33;;;;;;;2.40;1.83;;;;;;;;;;8316173;28;20672;-75
2023/06/05 19:48:34;;;;;;;3.53;1.75;;;;;;;;;;8330775;28;20280;-75
2023/06/05 19:52:34;;;;;;;1.60;1.50;;;;;;;;;;8330052;28;20179;-75
2023/06/05 19:56:34;;;;;;;2.70;1.42;;;;;;;;;;8333276;28;20024;-75
2023/06/05 20:00:35;;;;;;;2.70;1.77;;;;;;;;;;8330618;28;20094;-75
2023/06/05 20:04:35;;;;;;;1.80;1.70;;;;;;;;;;8332892;28;21696;-75
2023/06/05 20:08:35;;;;;;;4.57;1.77;;;;;;;;;;8315338;28;20064;-74
2023/06/05 20:12:35;;;;;;;6.22;1.63;;;;;;;;;;8316774;28;20036;-73
2023/06/05 20:16:35;;;;;;;1.60;1.50;;;;;;;;;;8314755;28;20032;-73
2023/06/05 20:20:37;;;;;;;2.65;1.60;;;;;;;;;;8325260;28;20144;-73
2023/06/05 20:24:38;;;;;;;3.67;1.75;;;;;;;;;;8331984;28;20411;-73
2023/06/05 20:28:39;;;;;;;2.10;1.70;;;;;;;;;;8316483;28;20064;-73
2023/06/05 20:32:39;;;;;;;2.05;1.85;;;;;;;;;;8331608;28;20037;-74
2023/06/05 20:36:41;;;;;;;4.40;1.70;;;;;;;;;;8331246;28;20909;-74
2023/06/05 20:40:42;;;;;;;2.35;1.25;;;;;;;;;;8335461;28;20744;-74
2023/06/05 20:44:42;;;;;;;3.60;1.77;;;;;;;;;;8333138;28;20055;-74
2023/06/05 20:48:42;;;;;;;1.60;1.50;;;;;;;;;;8333911;28;20044;-74
2023/06/05 20:52:42;;;;;;;1.92;1.65;;;;;;;;;;8321402;28;20768;-73
2023/06/05 20:56:42;;;;;;;3.65;1.50;;;;;;;;;;8329282;28;20037;-74
2023/06/05 21:00:43;;;;;;;4.28;1.70;;;;;;;;;;8334801;28;20044;-73
2023/06/05 21:04:44;;;;;;;2.88;1.58;;;;;;;;;;8329493;28;20102;-73
2023/06/05 21:08:44;;;;;;;3.40;1.70;;;;;;;;;;8324812;28;20039;-73
2023/06/05 21:12:44;;;;;;;1.50;1.40;;;;;;;;;;8323799;28;20017;-73
2023/06/05 21:16:45;;;;;;;3.43;1.77;;;;;;;;;;8321909;28;20064;-73
2023/06/05 21:20:45;;;;;;;1.60;1.50;;;;;;;;;;8322846;28;20302;-73
2023/06/05 21:24:45;;;;;;;3.43;1.50;;;;;;;;;;8336277;28;20025;-73
2023/06/05 21:28:45;;;;;;;3.38;1.58;;;;;;;;;;8338207;28;20099;-73
2023/06/05 21:32:45;;;;;;;4.75;1.60;;;;;;;;;;8320718;28;20048;-73
2023/06/05 21:36:46;;;;;;;2.20;1.70;;;;;;;;;;8340568;28;20665;-73
2023/06/05 21:40:46;;;;;;;3.03;1.88;;;;;;;;;;8328201;28;20028;-73
2023/06/05 21:44:47;;;;;;;5.77;2.00;;;;;;;;;;8341265;28;20025;-73
2023/06/05 21:48:47;;;;;;;1.70;1.48;;;;;;;;;;8340180;28;20325;-73
2023/06/05 21:52:47;;;;;;;4.13;1.65;;;;;;;;;;8342107;28;20029;-73
2023/06/05 21:56:48;;;;;;;1.75;1.60;;;;;;;;;;8340059;28;20112;-73
2023/06/05 22:00:48;;;;;;;1.63;1.52;;;;;;;;;;8339119;28;20040;-73
2023/06/05 22:04:48;;;;;;;1.80;1.70;;;;;;;;;;8339123;28;20032;-73
2023/06/05 22:08:48;;;;;;;2.67;1.70;;;;;;;;;;8342551;28;20520;-73
2023/06/05 22:12:49;;;;;;;4.75;1.80;;;;;;;;;;8342041;28;20287;-73
2023/06/05 22:16:50;;;;;;;3.03;1.88;;;;;;;;;;8341274;28;20039;-73
2023/06/05 22:20:50;;;;;;;5.47;1.70;;;;;;;;;;8342911;28;20490;-73
2023/06/05 22:24:51;;;;;;;1.88;1.60;;;;;;;;;;8341018;28;20029;-73
2023/06/05 22:28:51;;;;;;;5.60;1.60;;;;;;;;;;8339507;28;20031;-73
2023/06/05 22:32:52;;;;;;;3.17;1.63;;;;;;;;;;8340197;28;20033;-73
2023/06/05 22:36:52;;;;;;;5.18;2.47;;;;;;;;;;8337446;28;20082;-73
2023/06/05 22:40:53;;;;;;;3.25;1.90;;;;;;;;;;8339120;28;20016;-73
2023/06/05 22:44:53;;;;;;;3.28;1.77;;;;;;;;;;8339861;28;20037;-73
2023/06/05 22:48:54;;;;;;;2.55;1.73;;;;;;;;;;8339275;28;20032;-73
2023/06/05 22:52:54;;;;;;;2.80;1.73;;;;;;;;;;8339893;28;20028;-73
2023/06/05 22:56:55;;;;;;;1.98;1.73;;;;;;;;;;8338347;28;20175;-73
2023/06/05 23:00:56;;;;;;;1.90;1.80;;;;;;;;;;8324648;28;20279;-73
2023/06/05 23:04:57;;;;;;;2.47;1.83;;;;;;;;;;8338292;28;20071;-73
2023/06/05 23:08:57;;;;;;;1.65;1.55;;;;;;;;;;8337132;28;20040;-73
2023/06/05 23:12:58;;;;;;;4.72;2.03;;;;;;;;;;8338844;28;20063;-74
2023/06/05 23:16:58;;;;;;;3.88;1.65;;;;;;;;;;8338025;28;20127;-73
2023/06/05 23:20:58;;;;;;;1.95;1.75;;;;;;;;;;8334180;28;20120;-73
2023/06/05 23:24:58;;;;;;;3.15;1.80;;;;;;;;;;8336072;28;20017;-74
2023/06/05 23:28:59;;;;;;;1.70;1.60;;;;;;;;;;8337577;28;20029;-74
2023/06/05 23:32:59;;;;;;;1.80;1.65;;;;;;;;;;8335701;28;20032;-73
2023/06/05 23:37:00;;;;;;;1.88;1.60;;;;;;;;;;8335195;28;20023;-73
2023/06/05 23:41:00;;;;;;;7.15;2.00;;;;;;;;;;8334132;28;20060;-73
2023/06/05 23:45:00;;;;;;;2.47;1.75;;;;;;;;;;8322422;28;20025;-73
2023/06/05 23:49:01;;;;;;;2.00;1.67;;;;;;;;;;8323416;28;20113;-73
2023/06/05 23:53:02;;;;;;;1.80;1.60;;;;;;;;;;8338780;28;20075;-73
2023/06/05 23:57:02;;;;;;;2.95;1.75;;;;;;;;;;8337306;28;20028;-73
